Time;durP1;ratioP1;P1;durP2;ratioP2;P2;SDS_P1;SDS_P2;PMS_P1;PMS_P2;Temp;Humidity;BMP_temperature;BMP_pressure;BME280_temperature;BME280_humidity;BME280_pressure;Samples;Min_cycle;Max_cycle;Signal;HPM_P1;HPM_P2
2022/08/13 00:01:22;;;;;;;10.25;4.78;;;;;;;;;;4363621;32;20078;-67
2022/08/13 00:03:53;;;;;;;8.57;4.85;;;;;;;;;;4363918;32;20066;-68
2022/08/13 00:09:05;;;;;;;9.80;5.18;;;;;;;;;;4363553;32;20112;-68
2022/08/13 00:14:23;;;;;;;8.50;5.25;;;;;;;;;;4353994;32;20121;-67
2022/08/13 00:16:54;;;;;;;13.55;6.10;;;;;;;;;;4351665;32;20227;-68
2022/08/13 00:19:21;;;;;;;8.00;4.85;;;;;;;;;;4351436;32;20078;-68
2022/08/13 00:21:48;;;;;;;8.85;5.15;;;;;;;;;;4363471;32;20129;-67
2022/08/13 00:24:15;;;;;;;13.60;6.07;;;;;;;;;;4363548;32;20070;-68
2022/08/13 00:26:42;;;;;;;9.65;5.30;;;;;;;;;;4364001;32;20090;-68
2022/08/13 00:29:09;;;;;;;10.70;5.60;;;;;;;;;;4363467;32;20504;-68
2022/08/13 00:31:37;;;;;;;11.23;5.20;;;;;;;;;;4351141;32;20097;-68
2022/08/13 00:34:04;;;;;;;8.93;5.30;;;;;;;;;;4363528;32;20074;-68
2022/08/13 00:36:34;;;;;;;9.07;5.87;;;;;;;;;;4350784;32;20109;-68
2022/08/13 00:39:04;;;;;;;14.05;6.25;;;;;;;;;;4351065;32;20076;-68
2022/08/13 00:41:37;;;;;;;8.95;4.72;;;;;;;;;;4363100;32;20078;-68
2022/08/13 00:44:05;;;;;;;8.30;5.20;;;;;;;;;;4376897;32;20457;-68
2022/08/13 00:46:33;;;;;;;12.65;5.47;;;;;;;;;;4362920;32;20599;-68
2022/08/13 00:49:03;;;;;;;8.30;4.68;;;;;;;;;;4376665;32;20172;-68
2022/08/13 00:51:31;;;;;;;9.20;5.12;;;;;;;;;;4351608;32;20182;-67
2022/08/13 00:53:58;;;;;;;6.90;4.90;;;;;;;;;;4363410;32;20169;-68
2022/08/13 00:56:25;;;;;;;8.27;5.40;;;;;;;;;;4350324;32;20523;-67
2022/08/13 00:58:53;;;;;;;7.07;4.55;;;;;;;;;;4362817;32;20100;-67
2022/08/13 01:01:23;;;;;;;9.40;4.95;;;;;;;;;;4350434;32;20082;-68
2022/08/13 01:03:50;;;;;;;6.65;4.60;;;;;;;;;;4350654;32;20082;-67
2022/08/13 01:06:21;;;;;;;9.18;4.57;;;;;;;;;;4350504;32;20098;-68
2022/08/13 01:08:50;;;;;;;8.38;4.50;;;;;;;;;;4377003;32;20077;-67
2022/08/13 01:11:18;;;;;;;7.32;4.78;;;;;;;;;;4363180;32;20070;-68
2022/08/13 01:13:45;;;;;;;8.15;4.70;;;;;;;;;;4350739;32;20074;-68
2022/08/13 01:16:13;;;;;;;10.93;4.78;;;;;;;;;;4362753;32;20524;-68
2022/08/13 01:18:49;;;;;;;10.88;4.65;;;;;;;;;;4363607;32;20542;-68
2022/08/13 01:21:18;;;;;;;11.23;5.62;;;;;;;;;;4362681;32;20178;-67
2022/08/13 01:23:48;;;;;;;10.10;5.80;;;;;;;;;;4362743;32;20078;-68
2022/08/13 01:26:17;;;;;;;10.18;5.60;;;;;;;;;;4350441;32;20078;-68
2022/08/13 01:28:45;;;;;;;12.95;5.97;;;;;;;;;;4350558;32;20070;-67
2022/08/13 01:31:14;;;;;;;13.45;5.90;;;;;;;;;;4363208;32;20174;-67
2022/08/13 01:33:43;;;;;;;9.02;5.55;;;;;;;;;;4350699;32;20081;-68
2022/08/13 01:36:11;;;;;;;7.62;5.18;;;;;;;;;;4338157;32;20085;-66
2022/08/13 01:38:40;;;;;;;10.93;5.97;;;;;;;;;;4362856;32;20082;-67
2022/08/13 01:41:10;;;;;;;8.10;4.90;;;;;;;;;;4362429;32;20104;-68
2022/08/13 01:43:38;;;;;;;11.12;4.70;;;;;;;;;;4363926;32;20082;-68
2022/08/13 01:46:07;;;;;;;8.20;4.87;;;;;;;;;;4350162;32;20508;-67
2022/08/13 01:51:24;;;;;;;;;;;;;;;;;;4352222;32;20182;-67
2022/08/13 01:53:57;;;;;;;11.75;5.35;;;;;;;;;;4350381;32;19969;-69
2022/08/13 01:56:25;;;;;;;12.70;6.78;;;;;;;;;;4362268;32;20067;-68
2022/08/13 01:58:57;;;;;;;11.43;5.72;;;;;;;;;;4363405;32;20070;-68
2022/08/13 02:01:25;;;;;;;10.88;5.43;;;;;;;;;;4350746;32;20112;-68
2022/08/13 02:03:53;;;;;;;11.05;5.62;;;;;;;;;;4349726;32;20155;-67
2022/08/13 02:06:28;;;;;;;12.70;6.53;;;;;;;;;;4338630;32;20102;-67
2022/08/13 02:09:04;;;;;;;17.30;6.32;;;;;;;;;;4353006;32;20082;-68
2022/08/13 02:11:34;;;;;;;9.48;5.43;;;;;;;;;;4363906;32;20457;-67
2022/08/13 02:14:03;;;;;;;10.13;5.72;;;;;;;;;;4365393;32;20082;-67
2022/08/13 02:16:36;;;;;;;9.50;5.75;;;;;;;;;;4365419;32;20081;-68
2022/08/13 02:19:06;;;;;;;13.02;5.80;;;;;;;;;;4366224;32;20162;-67
2022/08/13 02:21:34;;;;;;;11.45;5.28;;;;;;;;;;4352991;32;20082;-68
2022/08/13 02:24:03;;;;;;;12.63;5.90;;;;;;;;;;4365486;32;20151;-67
2022/08/13 02:26:36;;;;;;;11.38;5.90;;;;;;;;;;4379242;32;20090;-67
2022/08/13 02:29:04;;;;;;;10.82;5.75;;;;;;;;;;4354254;32;20074;-68
2022/08/13 02:31:32;;;;;;;12.23;5.80;;;;;;;;;;4384951;32;20080;-69
2022/08/13 02:33:59;;;;;;;14.48;6.28;;;;;;;;;;4340487;32;20098;-67
2022/08/13 02:36:26;;;;;;;9.95;5.45;;;;;;;;;;4352527;32;20093;-67
2022/08/13 02:38:55;;;;;;;9.02;5.65;;;;;;;;;;4364921;32;20116;-68
2022/08/13 02:44:10;;;;;;;10.23;6.20;;;;;;;;;;4367614;32;20453;-67
2022/08/13 02:46:42;;;;;;;9.00;5.50;;;;;;;;;;4352396;32;20078;-67
2022/08/13 02:49:10;;;;;;;11.73;5.93;;;;;;;;;;4352232;32;20102;-68
2022/08/13 02:51:39;;;;;;;11.88;5.68;;;;;;;;;;4364650;32;20082;-67
2022/08/13 02:54:07;;;;;;;10.85;5.62;;;;;;;;;;4365199;32;20100;-66
2022/08/13 02:56:36;;;;;;;12.77;6.35;;;;;;;;;;4352343;32;20081;-67
2022/08/13 02:59:06;;;;;;;9.20;5.72;;;;;;;;;;4364929;32;20073;-67
2022/08/13 03:01:34;;;;;;;12.93;5.93;;;;;;;;;;4353996;32;20085;-68
2022/08/13 03:04:00;;;;;;;11.80;5.72;;;;;;;;;;4378285;32;20122;-67
2022/08/13 03:06:27;;;;;;;12.70;5.87;;;;;;;;;;4364492;32;20104;-67
2022/08/13 03:08:54;;;;;;;7.55;5.93;;;;;;;;;;4364886;32;20093;-68
2022/08/13 03:11:21;;;;;;;9.70;6.72;;;;;;;;;;4364751;32;20496;-68
2022/08/13 03:13:57;;;;;;;9.25;6.30;;;;;;;;;;4352751;32;20132;-67
2022/08/13 03:16:26;;;;;;;6.45;4.43;;;;;;;;;;4365110;32;20070;-67
2022/08/13 03:18:54;;;;;;;10.32;5.32;;;;;;;;;;4352332;32;20236;-68
2022/08/13 03:21:26;;;;;;;7.87;5.05;;;;;;;;;;4352431;32;20083;-67
2022/08/13 03:23:53;;;;;;;7.70;5.25;;;;;;;;;;4364065;32;20080;-68
2022/08/13 03:26:21;;;;;;;11.07;5.82;;;;;;;;;;4378103;32;20452;-67
2022/08/13 03:28:51;;;;;;;9.15;5.22;;;;;;;;;;4364364;32;20536;-67
2022/08/13 03:31:19;;;;;;;6.93;5.03;;;;;;;;;;4378094;32;20074;-68
2022/08/13 03:33:46;;;;;;;12.35;6.10;;;;;;;;;;4364327;32;20449;-67
2022/08/13 03:36:13;;;;;;;8.23;5.45;;;;;;;;;;4352260;32;20058;-67
2022/08/13 03:38:40;;;;;;;8.95;5.05;;;;;;;;;;4351509;32;20430;-67
2022/08/13 03:41:11;;;;;;;7.12;5.47;;;;;;;;;;4364046;32;20161;-68
2022/08/13 03:43:48;;;;;;;8.32;5.60;;;;;;;;;;4364331;32;20538;-67
2022/08/13 03:46:20;;;;;;;8.77;6.12;;;;;;;;;;4351645;32;20066;-67
2022/08/13 03:48:48;;;;;;;12.37;6.43;;;;;;;;;;4364148;32;20101;-68
2022/08/13 03:51:17;;;;;;;8.45;6.25;;;;;;;;;;4364118;32;20090;-68
2022/08/13 03:53:44;;;;;;;10.20;5.80;;;;;;;;;;4363985;32;20101;-67
2022/08/13 03:56:12;;;;;;;9.73;5.85;;;;;;;;;;4351937;32;20170;-68
2022/08/13 03:58:39;;;;;;;7.90;5.40;;;;;;;;;;4351455;32;20090;-68
2022/08/13 04:01:06;;;;;;;7.55;5.22;;;;;;;;;;4377617;32;20076;-67
2022/08/13 04:03:36;;;;;;;7.05;5.35;;;;;;;;;;4363791;32;20085;-67
2022/08/13 04:06:25;;;;;;;7.43;5.25;;;;;;;;;;4351728;32;20148;-67
2022/08/13 04:08:53;;;;;;;6.57;5.07;;;;;;;;;;4351770;32;20074;-68
2022/08/13 04:11:25;;;;;;;9.77;6.18;;;;;;;;;;4364046;32;20074;-68
2022/08/13 04:13:52;;;;;;;11.70;5.15;;;;;;;;;;4351930;32;20078;-66
2022/08/13 04:16:23;;;;;;;9.00;5.72;;;;;;;;;;4363755;32;20173;-67
2022/08/13 04:18:50;;;;;;;8.77;5.00;;;;;;;;;;4364450;32;20104;-66
2022/08/13 04:21:19;;;;;;;7.07;5.00;;;;;;;;;;4351454;32;20075;-66
2022/08/13 04:23:46;;;;;;;7.43;5.00;;;;;;;;;;4363820;32;20070;-67
2022/08/13 04:26:16;;;;;;;8.45;5.25;;;;;;;;;;4363499;32;20078;-67
2022/08/13 04:28:45;;;;;;;12.10;5.53;;;;;;;;;;4350721;32;20063;-67
2022/08/13 04:31:12;;;;;;;8.50;4.37;;;;;;;;;;4339208;32;20105;-66
2022/08/13 04:33:39;;;;;;;9.98;5.20;;;;;;;;;;4352559;32;20082;-67
2022/08/13 04:36:07;;;;;;;10.40;5.47;;;;;;;;;;4351737;32;20098;-67
2022/08/13 04:38:35;;;;;;;8.60;4.70;;;;;;;;;;4363546;32;20142;-68
2022/08/13 04:41:02;;;;;;;6.12;4.50;;;;;;;;;;4351393;32;20179;-67
2022/08/13 04:43:29;;;;;;;11.02;4.87;;;;;;;;;;4363487;32;20088;-67
2022/08/13 04:45:59;;;;;;;9.07;4.53;;;;;;;;;;4363318;32;20077;-67
2022/08/13 04:48:28;;;;;;;7.43;4.87;;;;;;;;;;4363958;32;20078;-68
2022/08/13 04:50:55;;;;;;;7.00;4.10;;;;;;;;;;4363131;32;20098;-67
2022/08/13 04:53:30;;;;;;;9.20;4.50;;;;;;;;;;4363669;32;20151;-67
2022/08/13 04:55:58;;;;;;;7.25;4.25;;;;;;;;;;4351431;32;20089;-68
2022/08/13 04:58:32;;;;;;;7.32;5.03;;;;;;;;;;4350769;32;20089;-67
2022/08/13 05:01:00;;;;;;;7.85;3.85;;;;;;;;;;4376871;32;20062;-69
2022/08/13 05:03:28;;;;;;;8.35;4.93;;;;;;;;;;4364151;32;20086;-68
2022/08/13 05:05:54;;;;;;;8.40;4.53;;;;;;;;;;4383964;32;20085;-67
2022/08/13 05:08:21;;;;;;;5.68;3.95;;;;;;;;;;4351623;32;20093;-68
2022/08/13 05:10:49;;;;;;;6.05;4.60;;;;;;;;;;4337957;32;20437;-67
2022/08/13 05:13:33;;;;;;;8.63;4.70;;;;;;;;;;4350435;32;20163;-66
2022/08/13 05:16:03;;;;;;;7.53;4.50;;;;;;;;;;4363044;32;20159;-68
2022/08/13 05:18:31;;;;;;;7.28;4.53;;;;;;;;;;4350559;32;20165;-67
2022/08/13 05:21:01;;;;;;;7.18;4.00;;;;;;;;;;4338046;32;20090;-67
2022/08/13 05:23:28;;;;;;;10.57;4.47;;;;;;;;;;4350106;32;20547;-68
2022/08/13 05:25:54;;;;;;;6.47;4.37;;;;;;;;;;4363020;32;20078;-68
2022/08/13 05:28:22;;;;;;;6.95;4.25;;;;;;;;;;4362552;32;20093;-68
2022/08/13 05:30:48;;;;;;;5.37;3.60;;;;;;;;;;4350325;32;20571;-68
2022/08/13 05:33:18;;;;;;;6.97;3.97;;;;;;;;;;4362762;32;20144;-68
2022/08/13 05:35:52;;;;;;;8.32;4.07;;;;;;;;;;4362721;32;20073;-67
2022/08/13 05:38:22;;;;;;;6.70;4.43;;;;;;;;;;4350064;32;20069;-67
2022/08/13 05:40:51;;;;;;;6.05;4.18;;;;;;;;;;4338091;32;20082;-68
2022/08/13 05:43:23;;;;;;;5.75;4.40;;;;;;;;;;4363111;32;20086;-67
2022/08/13 05:45:57;;;;;;;8.15;4.20;;;;;;;;;;4350041;32;20158;-68
2022/08/13 05:48:29;;;;;;;6.15;4.40;;;;;;;;;;4362936;32;20092;-68
2022/08/13 05:51:00;;;;;;;7.62;3.95;;;;;;;;;;4347324;32;20094;-69
2022/08/13 05:53:28;;;;;;;6.72;3.87;;;;;;;;;;4359821;32;20090;-67
2022/08/13 05:55:55;;;;;;;6.03;3.80;;;;;;;;;;4361430;32;20074;-68
2022/08/13 05:58:23;;;;;;;4.87;3.33;;;;;;;;;;4347625;32;20066;-67
2022/08/13 06:03:36;;;;;;;6.13;3.87;;;;;;;;;;4361018;32;20173;-68
2022/08/13 06:06:07;;;;;;;4.05;3.10;;;;;;;;;;4359912;32;20083;-67
2022/08/13 06:08:40;;;;;;;3.78;2.85;;;;;;;;;;4359520;32;20526;-68
2022/08/13 06:11:09;;;;;;;5.57;3.30;;;;;;;;;;4359748;32;20081;-68
2022/08/13 06:13:40;;;;;;;5.90;3.78;;;;;;;;;;4359580;32;20173;-67
2022/08/13 06:16:08;;;;;;;6.05;4.10;;;;;;;;;;4359451;32;20077;-68
2022/08/13 06:18:37;;;;;;;5.22;3.60;;;;;;;;;;4360162;32;20078;-67
2022/08/13 06:21:06;;;;;;;4.22;3.42;;;;;;;;;;4359923;32;20097;-68
2022/08/13 06:23:38;;;;;;;4.97;3.30;;;;;;;;;;4347503;32;20066;-68
2022/08/13 06:26:07;;;;;;;4.45;3.55;;;;;;;;;;4335620;32;20162;-66
2022/08/13 06:28:35;;;;;;;6.43;3.40;;;;;;;;;;4347411;32;20093;-68
2022/08/13 06:31:06;;;;;;;4.75;3.65;;;;;;;;;;4335009;32;20090;-68
2022/08/13 06:33:35;;;;;;;5.43;3.75;;;;;;;;;;4360509;32;20079;-66
2022/08/13 06:36:07;;;;;;;7.53;3.72;;;;;;;;;;4360176;32;20074;-67
2022/08/13 06:38:42;;;;;;;6.20;3.67;;;;;;;;;;4359372;32;20079;-67
2022/08/13 06:41:11;;;;;;;6.35;4.28;;;;;;;;;;4359479;32;20114;-66
2022/08/13 06:43:47;;;;;;;8.15;4.35;;;;;;;;;;4334875;32;20082;-68
2022/08/13 06:46:15;;;;;;;5.53;3.95;;;;;;;;;;4359833;32;20063;-68
2022/08/13 06:48:42;;;;;;;6.05;4.03;;;;;;;;;;4359492;32;20082;-67
2022/08/13 06:51:11;;;;;;;5.60;4.20;;;;;;;;;;4359570;32;20176;-67
2022/08/13 06:53:42;;;;;;;7.57;3.90;;;;;;;;;;4347333;32;20090;-67
2022/08/13 06:56:12;;;;;;;6.28;4.60;;;;;;;;;;4361445;32;20082;-67
2022/08/13 06:58:40;;;;;;;7.03;5.05;;;;;;;;;;4340030;32;20071;-66
2022/08/13 07:01:07;;;;;;;7.07;4.10;;;;;;;;;;4350036;32;20083;-67
2022/08/13 07:03:35;;;;;;;4.53;3.37;;;;;;;;;;4363661;32;20074;-67
2022/08/13 07:06:01;;;;;;;5.32;3.92;;;;;;;;;;4337480;32;20095;-67
2022/08/13 07:08:30;;;;;;;7.12;4.00;;;;;;;;;;4361663;32;20071;-68
2022/08/13 07:13:45;;;;;;;9.27;3.87;;;;;;;;;;4352025;32;20074;-68
2022/08/13 07:16:16;;;;;;;5.47;3.90;;;;;;;;;;4349265;32;20574;-68
2022/08/13 07:18:49;;;;;;;6.03;3.85;;;;;;;;;;4350187;32;20117;-67
2022/08/13 07:21:19;;;;;;;5.85;3.67;;;;;;;;;;4361999;32;20127;-68
2022/08/13 07:23:47;;;;;;;5.60;3.95;;;;;;;;;;4361760;32;20089;-67
2022/08/13 07:26:16;;;;;;;4.70;3.87;;;;;;;;;;4361896;32;20066;-66
2022/08/13 07:28:46;;;;;;;6.95;3.22;;;;;;;;;;4362281;32;20156;-67
2022/08/13 07:31:15;;;;;;;5.57;3.30;;;;;;;;;;4363429;32;20502;-68
2022/08/13 07:33:48;;;;;;;4.82;3.45;;;;;;;;;;4337712;32;20091;-67
2022/08/13 07:36:15;;;;;;;5.18;3.40;;;;;;;;;;4337631;32;20501;-68
2022/08/13 07:38:42;;;;;;;4.57;3.70;;;;;;;;;;4365074;32;20587;-68
2022/08/13 07:41:12;;;;;;;4.53;3.40;;;;;;;;;;4367171;32;20157;-68
2022/08/13 07:43:43;;;;;;;4.85;3.12;;;;;;;;;;4362803;32;20552;-68
2022/08/13 07:46:15;;;;;;;3.50;2.90;;;;;;;;;;4349533;32;20063;-67
2022/08/13 07:48:49;;;;;;;4.93;3.08;;;;;;;;;;4349490;32;20085;-68
2022/08/13 07:51:22;;;;;;;3.67;2.65;;;;;;;;;;4361385;32;20602;-66
2022/08/13 07:53:56;;;;;;;3.35;2.72;;;;;;;;;;4361844;32;20086;-66
2022/08/13 07:56:28;;;;;;;3.22;2.62;;;;;;;;;;4337264;32;20161;-68
2022/08/13 07:59:11;;;;;;;2.92;2.40;;;;;;;;;;4350467;32;20090;-68
2022/08/13 08:01:47;;;;;;;4.30;2.75;;;;;;;;;;4361274;32;20083;-67
2022/08/13 08:04:15;;;;;;;8.27;3.25;;;;;;;;;;4361207;32;20147;-68
2022/08/13 08:06:45;;;;;;;4.87;2.85;;;;;;;;;;4348841;32;20097;-67
2022/08/13 08:09:23;;;;;;;3.53;2.70;;;;;;;;;;4361185;32;20070;-68
2022/08/13 08:14:37;;;;;;;3.78;2.47;;;;;;;;;;4361416;32;20093;-68
2022/08/13 08:17:06;;;;;;;3.33;2.53;;;;;;;;;;4348892;32;20078;-66
2022/08/13 08:19:33;;;;;;;5.30;2.50;;;;;;;;;;4360908;32;20082;-67
2022/08/13 08:22:01;;;;;;;2.83;2.30;;;;;;;;;;4349084;32;20094;-66
2022/08/13 08:24:30;;;;;;;2.75;2.30;;;;;;;;;;4361371;32;20151;-67
2022/08/13 08:26:58;;;;;;;6.32;2.87;;;;;;;;;;4362270;32;20074;-67
2022/08/13 08:29:25;;;;;;;3.22;2.25;;;;;;;;;;4336253;32;20105;-68
2022/08/13 08:31:52;;;;;;;3.25;2.53;;;;;;;;;;4360887;32;20468;-67
2022/08/13 08:34:19;;;;;;;3.00;2.30;;;;;;;;;;4362318;32;20070;-67
2022/08/13 08:36:46;;;;;;;4.00;2.60;;;;;;;;;;4336455;32;20082;-68
2022/08/13 08:44:46;;;;;;;3.10;2.47;;;;;;;;;;4360742;32;20175;-66
2022/08/13 08:47:12;;;;;;;2.85;2.45;;;;;;;;;;4360738;32;20078;-68
2022/08/13 08:49:40;;;;;;;6.35;2.58;;;;;;;;;;4360404;32;20079;-67
2022/08/13 08:52:07;;;;;;;3.72;2.58;;;;;;;;;;4348105;32;20082;-68
2022/08/13 08:54:34;;;;;;;3.20;2.40;;;;;;;;;;4348952;32;20086;-68
2022/08/13 08:57:03;;;;;;;4.62;2.83;;;;;;;;;;4362181;32;20085;-66
2022/08/13 08:59:32;;;;;;;4.85;2.53;;;;;;;;;;4335917;32;20082;-68
2022/08/13 09:01:59;;;;;;;2.75;2.20;;;;;;;;;;4361840;32;20071;-68
2022/08/13 09:04:28;;;;;;;3.87;2.40;;;;;;;;;;4348040;32;20090;-68
2022/08/13 09:06:57;;;;;;;3.95;2.47;;;;;;;;;;4360321;32;20076;-69
2022/08/13 09:09:25;;;;;;;2.67;2.00;;;;;;;;;;4348419;32;20147;-68
2022/08/13 09:11:57;;;;;;;3.65;2.80;;;;;;;;;;4360328;32;20082;-68
2022/08/13 09:14:26;;;;;;;4.53;2.60;;;;;;;;;;4348411;32;20075;-68
2022/08/13 09:16:55;;;;;;;2.42;2.22;;;;;;;;;;4360479;32;20101;-68
2022/08/13 09:19:23;;;;;;;4.03;2.60;;;;;;;;;;4348660;32;20066;-68
2022/08/13 09:21:51;;;;;;;2.75;2.30;;;;;;;;;;4348523;32;20074;-68
2022/08/13 09:24:21;;;;;;;3.45;2.22;;;;;;;;;;4348137;32;20086;-68
2022/08/13 09:26:48;;;;;;;5.00;2.30;;;;;;;;;;4336199;32;20089;-68
2022/08/13 09:29:18;;;;;;;3.40;2.28;;;;;;;;;;4347909;32;20138;-68
2022/08/13 09:31:50;;;;;;;3.33;2.50;;;;;;;;;;4360097;32;20500;-68
2022/08/13 09:34:17;;;;;;;3.00;2.00;;;;;;;;;;4360218;32;20097;-68
2022/08/13 09:36:45;;;;;;;2.80;2.22;;;;;;;;;;4348334;32;20085;-68
2022/08/13 09:39:40;;;;;;;2.97;1.90;;;;;;;;;;4347585;32;20090;-67
2022/08/13 09:42:29;;;;;;;2.33;2.10;;;;;;;;;;4359263;32;20162;-68
2022/08/13 09:44:58;;;;;;;3.67;2.20;;;;;;;;;;4360339;32;20082;-67
2022/08/13 09:47:25;;;;;;;3.67;2.10;;;;;;;;;;4347821;32;20143;-67
2022/08/13 09:49:52;;;;;;;2.50;1.95;;;;;;;;;;4347410;32;20180;-67
2022/08/13 09:52:22;;;;;;;2.62;2.00;;;;;;;;;;4360205;32;20078;-68
2022/08/13 09:54:50;;;;;;;5.10;2.30;;;;;;;;;;4347446;32;20098;-68
2022/08/13 09:57:20;;;;;;;2.05;1.85;;;;;;;;;;4361124;32;20078;-68
2022/08/13 09:59:51;;;;;;;2.55;2.00;;;;;;;;;;4359981;32;20090;-68
2022/08/13 10:02:17;;;;;;;1.70;1.60;;;;;;;;;;4360027;32;20184;-68
2022/08/13 10:04:45;;;;;;;2.33;2.12;;;;;;;;;;4347630;32;20159;-68
2022/08/13 10:07:12;;;;;;;2.53;1.98;;;;;;;;;;4361247;32;20164;-68
2022/08/13 10:09:39;;;;;;;3.25;2.17;;;;;;;;;;4347333;32;20067;-68
2022/08/13 10:12:08;;;;;;;2.10;1.90;;;;;;;;;;4361402;32;20525;-68
2022/08/13 10:14:35;;;;;;;3.25;2.35;;;;;;;;;;4363154;32;20098;-68
2022/08/13 10:17:03;;;;;;;3.08;2.50;;;;;;;;;;4339095;32;20082;-68
2022/08/13 10:19:31;;;;;;;2.33;2.00;;;;;;;;;;4359979;32;20100;-68
2022/08/13 10:21:57;;;;;;;2.83;1.62;;;;;;;;;;4361174;32;20086;-68
2022/08/13 10:24:25;;;;;;;2.35;1.90;;;;;;;;;;4359732;32;20089;-67
2022/08/13 10:26:51;;;;;;;2.20;2.00;;;;;;;;;;4347439;32;20152;-67
2022/08/13 10:29:18;;;;;;;3.05;1.83;;;;;;;;;;4347721;32;20078;-67
2022/08/13 10:31:45;;;;;;;2.90;2.22;;;;;;;;;;4360216;32;20081;-68
2022/08/13 10:34:11;;;;;;;3.67;2.03;;;;;;;;;;4350196;32;20086;-68
2022/08/13 10:36:42;;;;;;;3.17;2.28;;;;;;;;;;4364477;32;20089;-68
2022/08/13 10:39:09;;;;;;;2.67;2.30;;;;;;;;;;4362535;32;20086;-68
2022/08/13 10:41:36;;;;;;;3.55;2.08;;;;;;;;;;4362467;32;20094;-68
2022/08/13 10:44:03;;;;;;;5.75;2.30;;;;;;;;;;4349985;32;20067;-68
2022/08/13 10:46:33;;;;;;;4.70;2.20;;;;;;;;;;4363949;32;20152;-67
2022/08/13 10:49:00;;;;;;;3.50;2.25;;;;;;;;;;4364815;32;20505;-68
2022/08/13 10:51:28;;;;;;;3.25;2.30;;;;;;;;;;4365426;32;20131;-66
2022/08/13 10:53:55;;;;;;;3.67;2.62;;;;;;;;;;4364762;32;20098;-68
2022/08/13 10:56:23;;;;;;;2.62;1.92;;;;;;;;;;4364640;32;20094;-67
2022/08/13 10:58:51;;;;;;;2.62;2.20;;;;;;;;;;4364886;32;20467;-66
2022/08/13 11:01:22;;;;;;;2.60;2.40;;;;;;;;;;4352494;32;20090;-67
2022/08/13 11:03:49;;;;;;;3.37;2.30;;;;;;;;;;4340408;32;20097;-67
2022/08/13 11:06:15;;;;;;;10.80;2.50;;;;;;;;;;4364484;32;20159;-67
2022/08/13 11:08:44;;;;;;;2.67;2.37;;;;;;;;;;4378517;32;20162;-67
2022/08/13 11:11:11;;;;;;;5.25;2.20;;;;;;;;;;4352200;32;20528;-67
2022/08/13 11:13:39;;;;;;;3.75;2.65;;;;;;;;;;4378118;32;20169;-68
2022/08/13 11:16:53;;;;;;;3.25;2.40;;;;;;;;;;4364258;32;20085;-68
2022/08/13 11:18:54;;;;;;;3.05;2.37;;;;;;;;;;4366773;32;20515;-68
2022/08/13 11:21:22;;;;;;;2.45;2.12;;;;;;;;;;4365322;32;20155;-67
2022/08/13 11:23:49;;;;;;;4.47;2.97;;;;;;;;;;4351860;32;20540;-68
2022/08/13 11:26:15;;;;;;;3.05;2.58;;;;;;;;;;4339602;32;20155;-67
2022/08/13 11:28:42;;;;;;;2.85;2.58;;;;;;;;;;4351937;32;20105;-67
2022/08/13 11:31:09;;;;;;;3.47;2.60;;;;;;;;;;4364469;32;20082;-68
2022/08/13 11:33:35;;;;;;;3.75;2.65;;;;;;;;;;4378122;32;20100;-68
2022/08/13 11:36:02;;;;;;;8.98;3.17;;;;;;;;;;4364225;32;20077;-67
2022/08/13 11:38:29;;;;;;;3.92;2.85;;;;;;;;;;4364182;32;20070;-68
2022/08/13 11:40:57;;;;;;;4.32;2.67;;;;;;;;;;4351835;32;20078;-68
2022/08/13 11:43:26;;;;;;;3.55;2.75;;;;;;;;;;4353468;32;20080;-68
2022/08/13 11:45:54;;;;;;;3.58;2.67;;;;;;;;;;4352726;32;20141;-67
2022/08/13 11:48:21;;;;;;;3.42;2.80;;;;;;;;;;4364117;32;20105;-68
2022/08/13 11:50:48;;;;;;;3.92;2.75;;;;;;;;;;4377754;32;20140;-68
2022/08/13 11:53:15;;;;;;;5.62;3.10;;;;;;;;;;4364589;32;20070;-67
2022/08/13 11:55:42;;;;;;;4.15;2.90;;;;;;;;;;4363717;32;20155;-67
2022/08/13 11:58:09;;;;;;;5.45;3.10;;;;;;;;;;4364597;32;20074;-67
2022/08/13 12:00:37;;;;;;;3.80;2.75;;;;;;;;;;4363830;32;20512;-68
2022/08/13 12:03:05;;;;;;;4.05;2.90;;;;;;;;;;4363737;32;20127;-68
2022/08/13 12:05:32;;;;;;;3.60;2.80;;;;;;;;;;4351133;32;20541;-68
2022/08/13 12:07:59;;;;;;;4.60;2.60;;;;;;;;;;4364100;32;20203;-67
2022/08/13 12:10:25;;;;;;;4.45;2.53;;;;;;;;;;4377681;32;20157;-68
2022/08/13 12:12:52;;;;;;;5.00;2.90;;;;;;;;;;4364083;32;20609;-68
2022/08/13 12:15:19;;;;;;;3.15;2.83;;;;;;;;;;4363976;32;20077;-68
2022/08/13 12:17:47;;;;;;;5.18;3.45;;;;;;;;;;4363602;32;20145;-68
2022/08/13 12:20:19;;;;;;;9.18;3.60;;;;;;;;;;4363590;32;20105;-68
2022/08/13 12:22:46;;;;;;;4.53;3.65;;;;;;;;;;4363272;32;20527;-68
2022/08/13 12:25:13;;;;;;;5.00;3.83;;;;;;;;;;4363926;32;20092;-68
2022/08/13 12:27:40;;;;;;;5.65;3.33;;;;;;;;;;4363617;32;20092;-68
2022/08/13 12:30:08;;;;;;;4.30;3.00;;;;;;;;;;4351649;32;20159;-68
2022/08/13 12:32:35;;;;;;;3.65;2.78;;;;;;;;;;4363254;32;20089;-68
2022/08/13 12:35:01;;;;;;;5.97;3.80;;;;;;;;;;4350896;32;20096;-68
2022/08/13 12:37:28;;;;;;;4.65;3.30;;;;;;;;;;4350909;32;20077;-68
2022/08/13 12:39:56;;;;;;;5.25;3.40;;;;;;;;;;4350879;32;20521;-68
2022/08/13 12:42:25;;;;;;;6.32;3.28;;;;;;;;;;4363308;32;20066;-66
2022/08/13 12:44:51;;;;;;;6.28;3.55;;;;;;;;;;4363765;32;20104;-68
2022/08/13 12:47:18;;;;;;;4.80;3.58;;;;;;;;;;4382483;32;20105;-69
2022/08/13 12:49:45;;;;;;;6.75;4.00;;;;;;;;;;4370496;32;20097;-69
2022/08/13 12:52:11;;;;;;;5.07;3.10;;;;;;;;;;4364969;32;20084;-68
2022/08/13 12:54:38;;;;;;;4.93;3.80;;;;;;;;;;4376564;32;20516;-68
2022/08/13 12:57:05;;;;;;;5.35;3.50;;;;;;;;;;4350757;32;20086;-68
2022/08/13 12:59:32;;;;;;;4.43;3.50;;;;;;;;;;4363115;32;20069;-68
2022/08/13 13:01:59;;;;;;;5.70;3.62;;;;;;;;;;4362902;32;20097;-67
2022/08/13 13:04:26;;;;;;;5.07;3.85;;;;;;;;;;4376719;32;20073;-69
2022/08/13 13:06:53;;;;;;;4.43;3.70;;;;;;;;;;4350672;32;20082;-68
2022/08/13 13:09:20;;;;;;;8.52;3.78;;;;;;;;;;4362759;32;20058;-68
2022/08/13 13:11:47;;;;;;;6.90;4.32;;;;;;;;;;4350149;32;20078;-68
2022/08/13 13:14:14;;;;;;;7.65;4.05;;;;;;;;;;4362609;32;20164;-68
2022/08/13 13:16:40;;;;;;;9.63;4.32;;;;;;;;;;4376374;32;20165;-69
2022/08/13 13:19:12;;;;;;;4.28;3.37;;;;;;;;;;4350235;32;20082;-69
2022/08/13 13:21:40;;;;;;;9.70;4.43;;;;;;;;;;4362804;32;20067;-68
2022/08/13 13:24:13;;;;;;;6.50;3.67;;;;;;;;;;4350873;32;20137;-68
2022/08/13 13:26:40;;;;;;;3.53;2.70;;;;;;;;;;4350244;32;20070;-68
2022/08/13 13:29:07;;;;;;;4.18;3.00;;;;;;;;;;4376535;32;20463;-68
2022/08/13 13:31:33;;;;;;;5.12;3.20;;;;;;;;;;4349946;32;20167;-68
2022/08/13 13:34:00;;;;;;;5.28;3.17;;;;;;;;;;4362751;32;20153;-68
2022/08/13 13:36:28;;;;;;;4.70;3.47;;;;;;;;;;4350887;32;20071;-68
2022/08/13 13:38:55;;;;;;;5.82;3.40;;;;;;;;;;4362334;32;20527;-68
2022/08/13 13:41:21;;;;;;;5.15;3.53;;;;;;;;;;4350079;32;20086;-67
2022/08/13 13:43:48;;;;;;;5.65;3.00;;;;;;;;;;4362395;32;20086;-68
2022/08/13 13:46:15;;;;;;;4.78;3.42;;;;;;;;;;4376429;32;20129;-68
2022/08/13 13:48:42;;;;;;;4.20;3.33;;;;;;;;;;4376209;32;20501;-67
2022/08/13 13:51:11;;;;;;;3.85;3.10;;;;;;;;;;4376022;32;20509;-66
2022/08/13 13:53:41;;;;;;;4.43;3.47;;;;;;;;;;4362413;32;20116;-68
2022/08/13 13:56:12;;;;;;;7.30;3.60;;;;;;;;;;4350049;32;20152;-68
2022/08/13 13:58:39;;;;;;;3.62;3.05;;;;;;;;;;4362421;32;20174;-68
2022/08/13 14:01:07;;;;;;;5.10;3.15;;;;;;;;;;4350344;32;20152;-67
2022/08/13 14:03:34;;;;;;;4.53;3.45;;;;;;;;;;4337993;32;20161;-68
2022/08/13 14:06:03;;;;;;;3.53;2.97;;;;;;;;;;4352786;32;20085;-68
2022/08/13 14:08:31;;;;;;;4.10;3.08;;;;;;;;;;4366884;32;20078;-68
2022/08/13 14:10:59;;;;;;;3.58;2.40;;;;;;;;;;4365971;32;20085;-66
2022/08/13 14:13:26;;;;;;;7.72;3.60;;;;;;;;;;4365703;32;20085;-68
2022/08/13 14:15:53;;;;;;;5.35;3.10;;;;;;;;;;4353319;32;20080;-68
2022/08/13 14:18:20;;;;;;;3.72;2.80;;;;;;;;;;4365249;32;20074;-68
2022/08/13 14:20:53;;;;;;;4.00;3.10;;;;;;;;;;4365296;32;20422;-67
2022/08/13 14:23:20;;;;;;;4.72;3.33;;;;;;;;;;4353075;32;20073;-70
2022/08/13 14:25:48;;;;;;;5.57;3.62;;;;;;;;;;4365064;32;20516;-68
2022/08/13 14:28:18;;;;;;;4.53;3.40;;;;;;;;;;4365035;32;20076;-68
2022/08/13 14:30:46;;;;;;;4.32;3.53;;;;;;;;;;4353342;32;20073;-67
2022/08/13 14:33:39;;;;;;;4.53;3.50;;;;;;;;;;4352443;32;20186;-67
2022/08/13 14:36:31;;;;;;;5.47;3.62;;;;;;;;;;4378290;32;20078;-67
2022/08/13 14:38:59;;;;;;;4.72;3.42;;;;;;;;;;4364824;32;20082;-67
2022/08/13 14:41:26;;;;;;;5.37;3.45;;;;;;;;;;4365722;32;20082;-68
2022/08/13 14:43:53;;;;;;;5.25;3.58;;;;;;;;;;4364911;32;20070;-67
2022/08/13 14:46:20;;;;;;;5.53;3.75;;;;;;;;;;4365484;32;20074;-68
2022/08/13 14:48:47;;;;;;;7.37;4.25;;;;;;;;;;4365198;32;20074;-68
2022/08/13 14:51:13;;;;;;;5.22;3.62;;;;;;;;;;4364765;32;20079;-67
2022/08/13 14:53:42;;;;;;;6.30;4.10;;;;;;;;;;4352298;32;20070;-67
2022/08/13 14:56:08;;;;;;;5.47;3.92;;;;;;;;;;4378555;32;20520;-67
2022/08/13 14:58:35;;;;;;;4.40;3.58;;;;;;;;;;4352235;32;20077;-67
2022/08/13 15:01:02;;;;;;;5.45;4.03;;;;;;;;;;4351978;32;20077;-67
2022/08/13 15:03:31;;;;;;;7.00;4.45;;;;;;;;;;4364579;32;20078;-67
2022/08/13 15:06:00;;;;;;;8.48;4.10;;;;;;;;;;4352748;32;20101;-68
2022/08/13 15:08:28;;;;;;;7.90;4.47;;;;;;;;;;4364730;32;20102;-66
2022/08/13 15:10:56;;;;;;;4.87;3.87;;;;;;;;;;4352019;32;20081;-67
2022/08/13 15:13:24;;;;;;;6.15;4.40;;;;;;;;;;4352325;32;20077;-67
2022/08/13 15:15:53;;;;;;;7.80;4.90;;;;;;;;;;4364651;32;20203;-67